createdAt,value
2018-08-09T00:00:44.955Z,55.15
2018-08-09T00:03:12.871Z,54.36
2018-08-09T00:05:40.688Z,52.81
2018-08-09T00:08:08.715Z,54.08
2018-08-09T00:10:36.707Z,54.44
2018-08-09T00:13:04.607Z,54.51
2018-08-09T00:15:32.498Z,54.04
2018-08-09T00:18:00.307Z,53.01
2018-08-09T00:20:28.131Z,51.17
2018-08-09T00:22:55.871Z,52.95
2018-08-09T00:25:23.658Z,51.94
2018-08-09T00:27:51.543Z,52.82
2018-08-09T00:30:19.430Z,53.77
2018-08-09T00:32:47.163Z,54.40
2018-08-09T00:35:15.064Z,54.36
2018-08-09T00:37:43.183Z,53.54
2018-08-09T00:40:11.015Z,53.01
2018-08-09T00:42:38.823Z,53.87
2018-08-09T00:45:06.931Z,53.29
2018-08-09T00:47:34.768Z,57.69
2018-08-09T00:50:02.659Z,57.12
2018-08-09T00:52:30.491Z,56.58
2018-08-09T00:54:58.379Z,55.85
2018-08-09T00:57:26.163Z,54.95
2018-08-09T00:59:54.105Z,55.82
2018-08-09T01:02:21.867Z,54.33
2018-08-09T01:04:49.712Z,55.45
2018-08-09T01:07:17.548Z,56.15
2018-08-09T01:09:45.369Z,57.87
2018-08-09T01:12:13.154Z,55.71
2018-08-09T01:14:40.923Z,56.67
2018-08-09T01:17:09.003Z,56.57
2018-08-09T01:19:36.883Z,57.33
2018-08-09T01:22:04.872Z,55.29
2018-08-09T01:24:32.691Z,58.91
2018-08-09T01:27:00.472Z,60.39
2018-08-09T01:29:28.305Z,59.25
2018-08-09T01:31:56.217Z,56.61
2018-08-09T01:34:24.018Z,59.46
2018-08-09T01:36:51.851Z,58.60
2018-08-09T01:39:19.669Z,61.23
2018-08-09T01:43:06.477Z,61.05
2018-08-09T01:45:34.288Z,58.71
2018-08-09T01:48:02.084Z,60.52
2018-08-09T01:50:29.912Z,61.81
2018-08-09T01:52:57.721Z,60.04
2018-08-09T01:55:25.555Z,62.02
2018-08-09T01:57:53.411Z,60.13
2018-08-09T02:00:21.288Z,60.78
2018-08-09T02:02:49.110Z,60.21
2018-08-09T02:05:17.047Z,61.60
2018-08-09T02:07:44.853Z,61.83
2018-08-09T02:10:12.644Z,62.90
2018-08-09T02:12:40.446Z,61.85
2018-08-09T02:15:08.305Z,61.28
2018-08-09T02:17:36.135Z,60.79
2018-08-09T02:20:04.172Z,60.45
2018-08-09T02:22:31.938Z,60.77
2018-08-09T02:24:59.710Z,60.32
2018-08-09T02:27:27.653Z,58.61
2018-08-09T02:29:55.525Z,60.39
2018-08-09T02:32:23.348Z,62.31
2018-08-09T02:34:51.180Z,62.42
2018-08-09T02:37:18.950Z,61.73
2018-08-09T02:39:46.729Z,62.37
2018-08-09T02:42:14.572Z,61.98
2018-08-09T02:44:42.417Z,60.41
2018-08-09T02:47:10.243Z,63.88
2018-08-09T02:49:38.084Z,62.61
2018-08-09T02:52:05.868Z,61.71
2018-08-09T02:54:33.735Z,61.53
2018-08-09T02:57:01.548Z,61.16
2018-08-09T02:59:29.396Z,61.47
2018-08-09T03:01:57.245Z,61.21
2018-08-09T03:04:25.031Z,62.62
2018-08-09T03:06:52.841Z,64.68
2018-08-09T03:09:20.651Z,62.12
2018-08-09T03:11:48.469Z,62.15
2018-08-09T03:14:16.198Z,63.14
2018-08-09T03:16:44.117Z,63.52
2018-08-09T03:19:11.943Z,64.28
2018-08-09T03:21:39.711Z,62.24
2018-08-09T03:24:07.580Z,61.69
2018-08-09T03:26:35.413Z,63.26
2018-08-09T03:29:04.187Z,64.98
2018-08-09T03:31:32.072Z,62.29
2018-08-09T03:33:59.810Z,61.40
2018-08-09T03:36:27.690Z,61.18
2018-08-09T03:38:55.480Z,63.55
2018-08-09T03:41:23.340Z,63.36
2018-08-09T03:43:51.115Z,65.33
2018-08-09T03:46:18.932Z,64.53
2018-08-09T03:48:46.760Z,63.08
2018-08-09T03:51:14.699Z,62.12
2018-08-09T03:53:42.532Z,63.30
2018-08-09T03:56:10.336Z,64.26
2018-08-09T03:58:38.296Z,62.43
2018-08-09T04:01:06.096Z,66.01
2018-08-09T04:03:33.921Z,65.23
2018-08-09T04:06:02.503Z,65.46
2018-08-09T04:08:30.816Z,63.47
2018-08-09T04:10:58.819Z,63.52
2018-08-09T04:13:26.603Z,61.81
2018-08-09T04:15:54.403Z,62.59
2018-08-09T04:18:22.257Z,63.82
2018-08-09T04:20:50.071Z,62.70
2018-08-09T04:23:17.900Z,65.60
2018-08-09T04:25:45.740Z,62.91
2018-08-09T04:28:13.580Z,62.52
2018-08-09T04:30:41.394Z,62.69
2018-08-09T04:33:09.247Z,64.06
2018-08-09T04:35:37.043Z,63.46
2018-08-09T04:38:05.025Z,64.51
2018-08-09T04:40:32.784Z,64.76
2018-08-09T04:43:00.611Z,63.46
2018-08-09T04:45:28.727Z,63.35
2018-08-09T04:47:56.548Z,63.56
2018-08-09T04:50:24.395Z,64.17
2018-08-09T04:52:52.175Z,62.82
2018-08-09T04:55:19.924Z,63.02
2018-08-09T04:57:47.739Z,62.51
2018-08-09T05:00:15.568Z,63.21
2018-08-09T05:02:43.464Z,63.66
2018-08-09T05:05:11.860Z,62.25
2018-08-09T05:07:39.639Z,61.13
2018-08-09T05:10:08.534Z,61.23
2018-08-09T05:12:37.473Z,61.71
2018-08-09T05:15:05.281Z,61.08
2018-08-09T05:17:33.475Z,61.52
2018-08-09T05:20:01.588Z,60.90
2018-08-09T05:22:29.417Z,60.77
2018-08-09T05:24:57.252Z,60.49
2018-08-09T05:27:25.147Z,60.10
2018-08-09T05:29:53.043Z,59.74
2018-08-09T05:32:20.891Z,60.19
2018-08-09T05:34:48.762Z,60.57
2018-08-09T05:37:16.819Z,58.94
2018-08-09T05:39:44.898Z,59.49
2018-08-09T05:42:12.780Z,59.54
2018-08-09T05:44:40.668Z,59.21
2018-08-09T05:47:08.462Z,58.88
2018-08-09T05:49:36.350Z,57.68
2018-08-09T05:52:04.795Z,56.87
2018-08-09T05:54:32.629Z,56.00
2018-08-09T05:57:00.453Z,56.12
2018-08-09T05:59:28.265Z,55.87
2018-08-09T06:01:56.104Z,55.89
2018-08-09T06:04:23.905Z,55.68
2018-08-09T06:06:51.714Z,56.42
2018-08-09T06:09:19.515Z,55.72
2018-08-09T06:11:47.355Z,55.76
2018-08-09T06:14:15.139Z,55.97
2018-08-09T06:16:42.929Z,56.40
2018-08-09T06:19:10.751Z,55.21
2018-08-09T06:21:38.633Z,55.50
2018-08-09T06:24:06.533Z,54.38
2018-08-09T06:26:34.446Z,54.92
2018-08-09T06:29:02.219Z,54.67
2018-08-09T06:31:30.064Z,54.29
2018-08-09T06:33:57.949Z,53.88
2018-08-09T06:36:26.020Z,54.20
2018-08-09T06:38:53.915Z,53.83
2018-08-09T06:41:21.782Z,53.78
2018-08-09T06:43:49.573Z,53.54
2018-08-09T06:46:17.437Z,53.72
2018-08-09T06:48:45.292Z,53.55
2018-08-09T06:51:13.196Z,53.45
2018-08-09T06:53:41.020Z,53.45
2018-08-09T06:56:08.902Z,53.19
2018-08-09T06:58:36.646Z,52.62
2018-08-09T07:01:04.427Z,52.24
2018-08-09T07:03:32.359Z,52.85
2018-08-09T07:06:00.116Z,52.59
2018-08-09T07:08:27.924Z,52.60
2018-08-09T07:10:55.747Z,52.24
2018-08-09T07:13:23.584Z,52.02
2018-08-09T07:15:51.422Z,52.25
2018-08-09T07:18:19.168Z,52.07
2018-08-09T07:20:46.932Z,51.33
2018-08-09T07:23:14.743Z,50.34
2018-08-09T07:25:42.573Z,50.43
2018-08-09T07:28:10.437Z,49.80
2018-08-09T07:30:38.275Z,50.10
2018-08-09T07:33:06.118Z,49.45
2018-08-09T07:35:33.960Z,49.56
2018-08-09T07:38:01.817Z,48.49
2018-08-09T07:40:29.623Z,47.97
2018-08-09T07:42:57.483Z,48.00
2018-08-09T07:45:25.508Z,46.80
2018-08-09T07:47:53.415Z,47.14
2018-08-09T07:50:21.468Z,46.24
2018-08-09T07:52:49.507Z,45.89
2018-08-09T07:55:17.284Z,45.05
2018-08-09T07:57:45.177Z,45.48
2018-08-09T08:00:13.704Z,44.45
2018-08-09T08:02:41.867Z,44.30
2018-08-09T08:05:09.696Z,42.14
2018-08-09T08:07:37.815Z,42.41
2018-08-09T08:10:07.636Z,41.18
2018-08-09T08:12:35.459Z,41.66
2018-08-09T08:15:04.967Z,38.79
2018-08-09T08:17:32.837Z,39.04
2018-08-09T08:20:00.628Z,38.15
2018-08-09T08:22:28.551Z,38.98
2018-08-09T08:24:56.352Z,39.36
2018-08-09T08:27:24.194Z,38.04
2018-08-09T08:29:52.076Z,36.73
2018-08-09T08:32:19.919Z,35.11
2018-08-09T08:34:48.868Z,35.29
2018-08-09T08:37:16.683Z,35.20
2018-08-09T08:39:44.632Z,35.27
2018-08-09T08:42:12.453Z,35.05
2018-08-09T08:44:40.291Z,35.18
2018-08-09T08:47:08.123Z,33.85
2018-08-09T08:49:36.113Z,34.06
2018-08-09T08:52:04.043Z,32.81
2018-08-09T08:54:31.843Z,34.09
2018-08-09T08:56:59.706Z,33.95
2018-08-09T08:59:27.569Z,33.35
2018-08-09T09:01:55.452Z,32.68
2018-08-09T09:04:23.373Z,32.95
2018-08-09T09:06:51.119Z,32.88
2018-08-09T09:09:19.015Z,31.52
2018-08-09T09:11:46.883Z,30.97
2018-08-09T09:14:14.687Z,30.48
2018-08-09T09:16:42.449Z,30.62
2018-08-09T09:19:10.267Z,29.96
2018-08-09T09:21:38.059Z,30.14
2018-08-09T09:24:06.135Z,30.92
2018-08-09T09:26:33.983Z,30.16
2018-08-09T09:29:01.828Z,29.42
2018-08-09T09:31:29.695Z,30.63
2018-08-09T09:33:57.456Z,29.00
2018-08-09T09:36:25.398Z,28.77
2018-08-09T09:38:53.250Z,27.88
2018-08-09T09:41:21.731Z,29.05
2018-08-09T09:43:49.576Z,28.64
2018-08-09T09:46:17.396Z,28.21
2018-08-09T09:48:45.175Z,27.74
2018-08-09T09:51:13.068Z,29.14
2018-08-09T09:53:40.855Z,27.50
2018-08-09T09:56:08.775Z,28.60
2018-08-09T09:58:36.604Z,26.59
2018-08-09T10:01:10.315Z,28.33
2018-08-09T10:03:38.084Z,28.69
2018-08-09T10:06:06.215Z,28.49
2018-08-09T10:08:33.975Z,28.42
2018-08-09T10:11:01.793Z,27.69
2018-08-09T10:13:29.627Z,27.88
2018-08-09T10:15:57.417Z,27.64
2018-08-09T10:18:25.191Z,27.77
2018-08-09T10:20:52.956Z,27.65
2018-08-09T10:23:20.788Z,27.72
2018-08-09T10:25:48.645Z,26.53
2018-08-09T10:28:16.471Z,27.30
2018-08-09T10:30:44.347Z,26.75
2018-08-09T10:33:12.374Z,26.78
2018-08-09T10:35:40.248Z,26.76
2018-08-09T10:38:08.309Z,25.61
2018-08-09T10:40:36.262Z,25.99
2018-08-09T10:43:04.050Z,25.58
2018-08-09T10:45:31.825Z,26.52
2018-08-09T10:47:59.681Z,25.87
2018-08-09T10:50:27.603Z,25.14
2018-08-09T10:52:55.427Z,24.13
2018-08-09T10:55:23.275Z,24.23
2018-08-09T10:57:51.140Z,23.46
2018-08-09T11:00:18.980Z,22.54
2018-08-09T11:02:46.794Z,22.66
2018-08-09T11:05:14.645Z,21.77
2018-08-09T11:07:42.407Z,21.29
2018-08-09T11:10:10.289Z,20.85
2018-08-09T11:12:38.058Z,19.91
2018-08-09T11:15:09.290Z,19.27
2018-08-09T11:17:37.135Z,19.88
2018-08-09T11:20:05.531Z,20.51
2018-08-09T11:22:33.360Z,20.53
2018-08-09T11:25:01.260Z,20.10
2018-08-09T11:27:29.031Z,19.64
2018-08-09T11:29:56.932Z,20.94
2018-08-09T11:32:24.747Z,21.21
2018-08-09T11:34:52.524Z,21.16
2018-08-09T11:37:20.335Z,20.79
2018-08-09T11:39:48.130Z,21.06
2018-08-09T11:42:17.174Z,19.55
2018-08-09T11:44:44.927Z,18.96
2018-08-09T11:47:12.755Z,18.85
2018-08-09T11:49:40.595Z,18.82
2018-08-09T11:52:08.432Z,18.86
2018-08-09T11:54:36.252Z,18.98
2018-08-09T11:57:04.070Z,19.06
2018-08-09T11:59:31.873Z,18.96
2018-08-09T12:01:59.750Z,17.11
2018-08-09T12:04:27.679Z,17.06
2018-08-09T12:06:55.467Z,17.57
2018-08-09T12:09:23.335Z,17.84
2018-08-09T12:11:51.068Z,17.91
2018-08-09T12:14:18.864Z,18.00
2018-08-09T12:16:46.635Z,18.84
2018-08-09T12:19:14.479Z,18.81
2018-08-09T12:21:42.296Z,18.06
2018-08-09T12:24:10.163Z,17.38
2018-08-09T12:26:38.079Z,18.67
2018-08-09T12:29:05.963Z,18.29
2018-08-09T12:31:33.791Z,17.91
2018-08-09T12:34:01.626Z,18.26
2018-08-09T12:36:29.574Z,17.97
2018-08-09T12:38:58.086Z,18.13
2018-08-09T12:41:25.964Z,16.28
2018-08-09T12:43:53.813Z,17.63
2018-08-09T12:46:21.692Z,18.34
2018-08-09T12:48:49.554Z,18.33
2018-08-09T12:51:17.586Z,18.95
2018-08-09T12:53:45.439Z,19.39
2018-08-09T12:56:13.199Z,18.47
2018-08-09T12:58:41.015Z,18.88
2018-08-09T13:01:08.988Z,19.51
2018-08-09T13:03:36.843Z,19.89
2018-08-09T13:06:04.718Z,18.97
2018-08-09T13:08:32.634Z,18.95
2018-08-09T13:11:00.488Z,20.25
2018-08-09T13:13:28.315Z,20.96
2018-08-09T13:15:56.163Z,20.69
2018-08-09T13:18:24.040Z,21.44
2018-08-09T13:20:51.908Z,21.21
2018-08-09T13:23:19.716Z,22.47
2018-08-09T13:25:47.591Z,22.44
2018-08-09T13:28:16.480Z,24.60
2018-08-09T13:30:44.292Z,24.88
2018-08-09T13:33:12.133Z,27.95
2018-08-09T13:35:40.789Z,28.42
2018-08-09T13:38:13.226Z,29.80
2018-08-09T13:40:41.123Z,30.83
2018-08-09T13:43:08.964Z,31.74
2018-08-09T13:45:36.883Z,42.62
2018-08-09T13:48:05.371Z,46.87
2018-08-09T13:50:34.823Z,49.16
2018-08-09T13:53:03.485Z,51.79
2018-08-09T13:55:31.532Z,50.28
2018-08-09T13:57:59.563Z,51.71
2018-08-09T14:00:27.403Z,54.56
2018-08-09T14:02:55.283Z,54.43
2018-08-09T14:05:23.150Z,55.91
2018-08-09T14:07:51.069Z,56.17
2018-08-09T14:10:18.945Z,56.99
2018-08-09T14:12:46.938Z,55.60
2018-08-09T14:15:15.603Z,59.45
2018-08-09T14:17:44.324Z,57.83
2018-08-09T14:20:19.434Z,58.76
2018-08-09T14:22:47.660Z,59.17
2018-08-09T14:25:15.516Z,61.91
2018-08-09T14:27:43.489Z,63.73
2018-08-09T14:30:13.801Z,63.71
2018-08-09T14:32:42.184Z,63.11
2018-08-09T14:35:12.299Z,68.03
2018-08-09T14:37:40.832Z,67.91
2018-08-09T14:40:09.889Z,66.97
2018-08-09T14:42:37.999Z,66.57
2018-08-09T14:45:08.809Z,68.81
2018-08-09T14:47:36.855Z,65.21
2018-08-09T14:50:05.127Z,70.16
2018-08-09T14:52:39.731Z,67.69
2018-08-09T14:55:09.932Z,68.59
2018-08-09T14:57:39.922Z,68.99
2018-08-09T15:00:13.625Z,70.41
2018-08-09T15:02:41.635Z,69.04
2018-08-09T15:05:09.500Z,69.90
2018-08-09T15:07:37.407Z,69.96
2018-08-09T15:10:05.678Z,68.27
2018-08-09T15:12:33.612Z,70.02
2018-08-09T15:15:02.326Z,70.34
2018-08-09T15:17:30.292Z,66.68
2018-08-09T15:19:58.196Z,68.23
2018-08-09T15:22:26.037Z,69.32
2018-08-09T15:24:53.979Z,66.00
2018-08-09T15:27:21.915Z,65.82
2018-08-09T15:29:49.755Z,67.18
2018-08-09T15:32:17.856Z,63.81
2018-08-09T15:34:46.034Z,62.13
2018-08-09T15:37:14.107Z,65.33
2018-08-09T15:39:42.009Z,66.36
2018-08-09T15:42:09.970Z,63.51
2018-08-09T15:44:37.857Z,61.65
2018-08-09T15:47:06.438Z,65.19
2018-08-09T15:49:34.350Z,63.22
2018-08-09T15:52:02.232Z,62.54
2018-08-09T15:54:30.067Z,62.76
2018-08-09T15:56:57.946Z,62.82
2018-08-09T15:59:25.851Z,59.24
2018-08-09T16:01:53.939Z,61.06
2018-08-09T16:04:21.912Z,61.33
2018-08-09T16:06:49.722Z,61.12
2018-08-09T16:09:21.044Z,60.20
2018-08-09T16:11:49.123Z,59.81
2018-08-09T16:14:19.813Z,60.28
2018-08-09T16:16:51.210Z,58.76
2018-08-09T16:19:19.008Z,58.36
2018-08-09T16:21:57.199Z,57.79
2018-08-09T16:24:25.512Z,56.66
2018-08-09T16:26:53.395Z,56.56
2018-08-09T16:29:21.296Z,55.34
2018-08-09T16:31:49.148Z,54.46
2018-08-09T16:34:17.063Z,53.48
2018-08-09T16:36:45.018Z,53.70
2018-08-09T16:39:13.791Z,53.99
2018-08-09T16:41:41.804Z,53.30
2018-08-09T16:44:10.328Z,53.02
2018-08-09T16:46:38.208Z,52.07
2018-08-09T16:49:06.282Z,51.03
2018-08-09T16:51:34.170Z,51.13
2018-08-09T16:54:02.063Z,52.04
2018-08-09T16:56:29.911Z,50.80
2018-08-09T16:58:57.776Z,51.80
2018-08-09T17:01:25.647Z,51.33
2018-08-09T17:03:53.627Z,51.60
2018-08-09T17:06:21.551Z,51.48
2018-08-09T17:08:49.760Z,52.10
2018-08-09T17:11:17.771Z,51.28
2018-08-09T17:13:45.660Z,52.14
2018-08-09T17:16:13.671Z,51.63
2018-08-09T17:18:48.154Z,51.98
2018-08-09T17:21:16.068Z,51.75
2018-08-09T17:23:43.895Z,51.71
2018-08-09T17:26:11.672Z,51.99
2018-08-09T17:28:39.611Z,51.31
2018-08-09T17:31:07.487Z,51.02
2018-08-09T17:33:35.347Z,52.49
2018-08-09T17:36:03.207Z,52.17
2018-08-09T17:38:31.166Z,51.94
2018-08-09T17:40:59.020Z,52.77
2018-08-09T17:43:26.991Z,51.75
2018-08-09T17:45:54.823Z,52.13
2018-08-09T17:48:22.659Z,52.10
2018-08-09T17:50:50.565Z,51.91
2018-08-09T17:53:18.442Z,52.03
2018-08-09T17:55:46.348Z,51.73
2018-08-09T17:58:14.217Z,52.27
2018-08-09T18:00:42.091Z,51.90
2018-08-09T18:03:09.915Z,51.67
2018-08-09T18:05:37.836Z,52.25
2018-08-09T18:08:05.832Z,52.23
2018-08-09T18:10:34.835Z,52.67
2018-08-09T18:13:02.704Z,52.78
2018-08-09T18:15:31.104Z,52.37
2018-08-09T18:17:59.695Z,52.15
2018-08-09T18:20:29.416Z,52.45
2018-08-09T18:22:57.519Z,52.34
2018-08-09T18:25:25.425Z,51.88
2018-08-09T18:27:53.616Z,52.89
2018-08-09T18:30:21.423Z,52.86
2018-08-09T18:32:49.395Z,53.07
2018-08-09T18:35:18.078Z,52.91
2018-08-09T18:37:45.959Z,53.05
2018-08-09T18:40:18.192Z,53.40
2018-08-09T18:42:46.010Z,53.18
2018-08-09T18:45:13.930Z,53.14
2018-08-09T18:47:41.771Z,52.81
2018-08-09T18:50:12.715Z,52.76
2018-08-09T18:52:41.020Z,53.39
2018-08-09T18:55:09.553Z,52.87
2018-08-09T18:57:38.468Z,54.05
2018-08-09T19:00:25.477Z,53.89
2018-08-09T19:02:53.619Z,53.44
2018-08-09T19:05:21.719Z,53.95
2018-08-09T19:07:49.646Z,54.25
2018-08-09T19:10:21.459Z,53.73
2018-08-09T19:12:50.747Z,54.17
2018-08-09T19:15:19.085Z,54.53
2018-08-09T19:17:47.233Z,53.67
2018-08-09T19:20:21.521Z,54.09
2018-08-09T19:22:51.415Z,54.24
2018-08-09T19:25:19.384Z,55.45
2018-08-09T19:27:48.141Z,55.01
2018-08-09T19:30:18.719Z,55.22
2018-08-09T19:32:49.951Z,56.14
2018-08-09T19:35:19.123Z,54.28
2018-08-09T19:37:47.160Z,54.96
2018-08-09T19:40:21.644Z,55.79
2018-08-09T19:42:52.539Z,55.66
2018-08-09T19:45:20.709Z,55.85
2018-08-09T19:47:59.849Z,56.37
2018-08-09T19:50:28.045Z,55.68
2018-08-09T19:52:57.271Z,55.76
2018-08-09T19:55:26.134Z,55.86
2018-08-09T19:57:54.304Z,56.40
2018-08-09T20:00:26.863Z,55.47
2018-08-09T20:02:54.774Z,56.23
2018-08-09T20:05:23.339Z,55.89
2018-08-09T20:07:52.130Z,56.22
2018-08-09T20:10:20.026Z,55.75
2018-08-09T20:12:48.328Z,55.55
2018-08-09T20:15:19.323Z,56.36
2018-08-09T20:17:48.403Z,56.70
2018-08-09T20:20:18.348Z,56.24
2018-08-09T20:22:48.132Z,57.21
2018-08-09T20:25:16.248Z,57.29
2018-08-09T20:27:44.817Z,55.62
2018-08-09T20:30:15.234Z,57.10
2018-08-09T20:32:44.081Z,55.99
2018-08-09T20:35:17.769Z,55.49
2018-08-09T20:37:47.426Z,56.35
2018-08-09T20:40:16.167Z,55.76
2018-08-09T20:42:44.832Z,56.68
2018-08-09T20:45:13.940Z,57.18
2018-08-09T20:47:41.907Z,56.62
2018-08-09T20:50:12.835Z,56.74
2018-08-09T20:52:41.576Z,56.60
2018-08-09T20:55:09.825Z,56.56
2018-08-09T20:57:38.898Z,55.99
2018-08-09T21:00:14.945Z,55.61
2018-08-09T21:02:43.823Z,55.86
2018-08-09T21:05:18.189Z,56.04
2018-08-09T21:07:46.040Z,55.49
2018-08-09T21:10:14.191Z,56.28
2018-08-09T21:12:41.989Z,55.98
2018-08-09T21:15:13.137Z,56.08
2018-08-09T21:17:42.428Z,55.87
2018-08-09T21:20:10.880Z,56.13
2018-08-09T21:22:38.767Z,55.35
2018-08-09T21:25:07.748Z,54.49
2018-08-09T21:27:35.610Z,54.02
2018-08-09T21:30:04.441Z,53.87
2018-08-09T21:32:32.369Z,54.08
2018-08-09T21:35:00.139Z,54.09
2018-08-09T21:37:27.890Z,53.85
2018-08-09T21:39:55.755Z,53.68
2018-08-09T21:42:23.852Z,53.95
2018-08-09T21:44:51.752Z,54.49
2018-08-09T21:47:20.197Z,54.01
2018-08-09T21:49:48.509Z,54.12
2018-08-09T21:52:16.303Z,54.04
2018-08-09T21:54:44.128Z,53.93
2018-08-09T21:57:12.326Z,54.54
2018-08-09T21:59:44.136Z,55.21
2018-08-09T22:02:19.811Z,55.24
2018-08-09T22:04:53.351Z,55.44
2018-08-09T22:07:26.978Z,54.81
2018-08-09T22:10:00.565Z,55.46
2018-08-09T22:12:34.334Z,55.47
2018-08-09T22:15:09.935Z,56.03
2018-08-09T22:17:43.799Z,54.85
2018-08-09T22:20:22.218Z,55.70
2018-08-09T22:22:50.579Z,55.64
2018-08-09T22:25:18.463Z,55.63
2018-08-09T22:27:46.372Z,55.79
2018-08-09T22:30:18.170Z,55.32
2018-08-09T22:32:46.308Z,55.99
2018-08-09T22:35:14.079Z,55.92
2018-08-09T22:37:41.951Z,56.40
2018-08-09T22:40:09.871Z,56.48
2018-08-09T22:42:37.683Z,56.19
2018-08-09T22:45:05.592Z,56.29
2018-08-09T22:47:33.504Z,56.43
2018-08-09T22:50:01.394Z,56.42
2018-08-09T22:52:29.279Z,57.25
2018-08-09T22:54:57.090Z,57.30
2018-08-09T22:57:24.928Z,56.91
2018-08-09T22:59:52.767Z,57.89
2018-08-09T23:02:20.619Z,57.01
2018-08-09T23:04:48.394Z,57.37
2018-08-09T23:07:16.287Z,57.34
2018-08-09T23:09:44.181Z,57.53
2018-08-09T23:12:12.059Z,57.55
2018-08-09T23:14:39.979Z,58.57
2018-08-09T23:17:47.358Z,57.88
2018-08-09T23:20:15.286Z,57.44
2018-08-09T23:22:43.254Z,57.90
2018-08-09T23:25:12.965Z,59.04
2018-08-09T23:27:41.635Z,57.42
2018-08-09T23:30:10.779Z,58.83
2018-08-09T23:32:38.600Z,58.68
2018-08-09T23:35:08.612Z,58.68
2018-08-09T23:37:36.508Z,59.42
2018-08-09T23:40:06.926Z,59.01
2018-08-09T23:42:35.793Z,58.62
2018-08-09T23:45:04.243Z,58.66
2018-08-09T23:47:32.054Z,58.50
2018-08-09T23:49:59.804Z,59.71
2018-08-09T23:52:27.744Z,58.79
2018-08-09T23:54:55.604Z,60.13
2018-08-09T23:57:23.496Z,59.46
2018-08-09T23:59:51.319Z,59.15
